Grygla, Minnesota
Current Conditions -  °F | °C
As of 7:15 PM on Saturday 22 Nov 2014 (Local Time) from KTVF Reporting Station
Clear Clear  
Wind Chill: 28°   Ceiling: Unl
Heat Index: 36°   Visibility: 10mi
Dew Point: 30°   Wind: 10mph
Humidity: 81%   Direction: 90°E
Pressure: 29.42"   Gusts: NA
Location:  48.3°N, 95.62°W
Report Text: KTVF 230115Z AUTO 09009KT 10SM CLR 02/M01 A2942 RMK AO1
Loading
Personal Weather Stations






























Interactive Weather Map New forecast layout! Learn more

10-Day Weather Forecast

Advertisements
Track Severe Weather on mobile